Latest Weather Observations for Newman Airport

IDW60801

Issued at 12:02 pm WST Monday 30 March 2015 (issued every 30 minutes, with the page automatically refreshed every 10 minutes)

About weather observations | Map of weather stations | Latest weather observations for WA | Other Formats
Station Details ID: 007176 Name: NEWMAN AERO Lat: -23.42 Lon: 119.80 Height: 524.0 m
Data from the previous 72 hours. | See also: Recent months at Newman Airport
Date/Time
WST
Temp
°C
App
Temp
°C
Dew
Point
Rel
Hum
%
Delta-T
°C
Wind Press
QNH
hPa
Press
MSL
hPa
Rain
since 9 am
mm
Dir
 
Spd
km/h
Gust
km/h
Spd
kts
Gust
kts
30/12:00pm 29.6 27.9 12.5 35 10.3 NNE 13 17 7 9 1017.5 1013.6 0.0
30/11:30am 28.8 28.6 13.1 38 9.5 NE 6 9 3 5 1017.8 1014.0 0.0
30/11:00am 28.4 27.5 12.7 38 9.4 ENE 9 13 5 7 1018.2 1014.4 0.0
30/10:30am 27.8 27.5 13.3 40 8.8 ENE 7 11 4 6 1018.5 1014.7 0.0
30/10:00am 27.0 26.5 13.7 44 8.0 E 9 11 5 6 1018.8 1015.0 0.0
30/09:30am 26.2 25.5 13.3 45 7.7 ESE 9 13 5 7 1018.8 1015.0 0.0
30/09:00am 26.1 26.0 13.9 47 7.4 ESE 7 11 4 6 1018.9 1015.1 0.0
30/08:30am 25.4 25.8 14.8 52 6.5 ESE 6 7 3 4 1018.9 1015.1 0.0
30/08:00am 24.9 26.3 14.4 52 6.4 CALM 0 0 0 0 1018.5 1014.7 0.0
30/07:30am 24.3 24.0 14.4 54 6.0 SE 9 11 5 6 1018.2 1014.4 0.0
30/07:00am 23.4 23.8 15.2 60 5.0 SSW 7 9 4 5 1017.8 1014.0 0.0
30/06:30am 23.4 23.9 14.9 59 5.2 SE 6 7 3 4 1017.6 1013.7 0.0
30/06:00am 23.6 25.1 14.6 57 5.4 CALM 0 4 0 2 1017.6 1013.7 0.0
30/05:30am 23.3 24.8 14.6 58 5.3 CALM 0 6 0 3 1016.7 1012.9 0.0
30/05:00am 23.6 23.4 14.6 57 5.4 E 9 11 5 6 1016.6 1012.8 0.0
30/04:30am 23.8 23.4 14.2 55 5.8 E 9 11 5 6 1016.5 1012.7 0.0
30/04:00am 23.8 24.0 14.2 55 5.8 SE 6 7 3 4 1016.7 1012.9 0.0
30/03:30am 23.9 24.6 13.4 51 6.2 SE 2 9 1 5 1016.3 1012.5 0.0
30/03:00am 24.4 25.6 13.9 52 6.3 CALM 0 0 0 0 1016.6 1012.8 0.0
30/02:30am 25.0 24.7 13.2 48 7.0 E 7 11 4 6 1016.8 1013.0 0.0
30/02:00am 24.9 24.7 13.5 49 6.8 ESE 7 11 4 6 1016.9 1013.1 0.0
30/01:30am 25.2 25.1 13.4 48 7.1 ESE 6 9 3 5 1017.0 1013.2 0.0
30/01:00am 25.3 24.7 13.5 48 7.1 SE 9 11 5 6 1017.4 1013.5 0.0
30/12:30am 26.7 26.1 12.4 41 8.5 NNE 7 11 4 6 1017.7 1013.9 0.0
30/12:00am 27.2 25.9 12.4 40 8.8 NNE 11 13 6 7 1018.0 1014.2 0.0
 
Date/Time
WST
Temp
°C
App
Temp
°C
Dew
Point
Rel
Hum
%
Delta-T
°C
Wind Press
QNH
hPa
Press
MSL
hPa
Rain
since 9 am
mm
Dir
 
Spd
km/h
Gust
km/h
Spd
kts
Gust
kts
29/11:30pm 27.1 26.1 12.3 39 8.8 NNE 9 13 5 7 1018.2 1014.4 0.0
29/11:00pm 27.1 26.1 12.3 39 8.8 NE 9 13 5 7 1018.2 1014.4 0.0
29/10:30pm 27.8 26.2 11.4 36 9.6 NNE 11 17 6 9 1018.4 1014.6 0.0
29/10:00pm 28.3 25.5 11.4 35 9.9 N 17 24 9 13 1018.6 1014.8 0.0
29/09:30pm 28.6 25.8 11.2 34 10.2 N 17 26 9 14 1018.3 1014.5 0.0
29/09:00pm 29.3 27.3 11.4 33 10.5 NNE 13 19 7 10 1018.0 1014.2 0.0
29/08:30pm 29.9 27.0 10.9 31 11.1 NNE 17 26 9 14 1018.0 1014.2 0.0
29/08:00pm 30.6 27.6 10.5 29 11.7 NNE 17 24 9 13 1017.6 1013.7 0.0
29/07:30pm 30.6 29.3 11.1 30 11.5 E 9 11 5 6 1017.1 1013.3 0.0
29/07:00pm 31.0 29.7 11.4 30 11.6 ENE 9 15 5 8 1016.7 1012.9 0.0
29/06:30pm 31.5 29.7 10.8 28 12.2 ENE 11 15 6 8 1016.4 1012.6 0.0
29/06:00pm 32.3 29.2 10.4 26 12.9 ENE 17 20 9 11 1016.2 1012.4 0.0
29/05:30pm 33.0 29.7 9.7 24 13.6 ENE 17 26 9 14 1016.0 1012.2 0.0
29/05:00pm 33.3 30.1 10.0 24 13.7 ENE 17 22 9 12 1016.0 1012.2 0.0
29/04:30pm 33.9 30.7 9.9 23 14.1 ENE 17 22 9 12 1015.8 1011.9 0.0
29/04:00pm 33.8 31.9 10.4 24 13.8 NE 11 17 6 9 1015.8 1011.9 0.0
29/03:30pm 33.3 30.9 10.0 24 13.7 ENE 13 19 7 10 1015.6 1011.7 0.0
29/03:00pm 33.3 31.3 10.0 24 13.7 ENE 11 17 6 9 1015.6 1011.7 0.0
29/02:30pm 34.1 32.4 10.0 23 14.2 E 9 19 5 10 1015.7 1011.8 0.0
29/02:00pm 33.7 31.7 10.3 24 13.8 NE 11 22 6 12 1015.9 1012.0 0.0
29/01:30pm 33.2 30.9 10.5 25 13.4 E 13 24 7 13 1016.3 1012.5 0.0
29/01:00pm 33.0 30.3 10.4 25 13.3 ENE 15 24 8 13 1016.6 1012.8 0.0
29/12:30pm 32.0 30.2 10.7 27 12.6 E 11 20 6 11 1017.2 1013.4 0.0
29/12:00pm 32.0 29.9 11.2 28 12.3 E 13 22 7 12 1017.7 1013.9 0.0
29/11:30am 31.7 30.1 11.5 29 12.0 NE 11 22 6 12 1018.0 1014.2 0.0
29/11:00am 30.9 27.9 10.8 29 11.8 E 17 30 9 16 1018.3 1014.5 0.0
29/10:30am 29.7 26.3 11.2 31 10.9 E 20 28 11 15 1018.7 1014.9 0.0
29/10:00am 29.0 25.8 11.1 33 10.5 ENE 19 26 10 14 1019.2 1015.4 0.0
29/09:30am 27.8 25.5 11.8 37 9.4 ESE 15 22 8 12 1019.5 1015.7 0.0
29/09:00am 26.0 25.1 13.8 47 7.4 ENE 11 15 6 8 1019.6 1015.8 0.0
29/08:30am 24.4 26.1 15.1 56 5.7 CALM 0 0 0 0 1019.5 1015.7 0.0
29/08:00am 23.4 23.8 14.7 58 5.3 ESE 6 9 3 5 1019.2 1015.4 0.0
29/07:30am 22.3 22.9 15.2 64 4.3 ESE 6 9 3 5 1019.1 1015.3 0.0
29/07:00am 21.8 22.3 14.9 65 4.2 E 6 9 3 5 1018.8 1015.0 0.0
29/06:30am 21.7 21.3 15.1 66 4.0 E 11 13 6 7 1018.5 1014.7 0.0
29/06:00am 20.9 21.9 15.4 71 3.3 SSE 4 7 2 4 1018.2 1014.4 0.0
29/05:30am 20.2 20.9 15.6 75 2.8 SSW 6 7 3 4 1017.8 1014.0 0.0
29/05:00am 21.1 22.4 15.2 69 3.6 SE 2 6 1 3 1017.4 1013.5 0.0
29/04:30am 21.4 22.0 15.9 71 3.4 NE 7 9 4 5 1017.0 1013.2 0.0
29/04:00am 21.4 23.1 16.1 72 3.3 SSE 2 13 1 7 1017.1 1013.3 0.0
29/03:30am 20.9 21.9 16.3 75 2.8 S 6 6 3 3 1016.7 1012.9 0.0
29/03:00am 21.0 22.7 16.2 74 3.0 S 2 7 1 4 1016.7 1012.9 0.0
29/02:30am 21.6 23.9 16.8 74 3.0 CALM 0 0 0 0 1016.6 1012.8 0.0
29/02:00am 22.1 24.0 15.7 67 3.9 CALM 0 0 0 0 1016.7 1012.9 0.0
29/01:30am 21.7 23.8 16.2 71 3.4 CALM 0 0 0 0 1016.9 1013.1 0.0
29/01:00am 22.4 24.3 15.7 66 4.1 CALM 0 0 0 0 1017.2 1013.4 0.0
29/12:30am 22.3 23.3 16.3 69 3.7 S 6 9 3 5 1017.6 1013.7 0.0
29/12:00am 22.7 23.6 16.0 66 4.1 SE 6 7 3 4 1017.9 1014.1 0.0
 
Date/Time
WST
Temp
°C
App
Temp
°C
Dew
Point
Rel
Hum
%
Delta-T
°C
Wind Press
QNH
hPa
Press
MSL
hPa
Rain
since 9 am
mm
Dir
 
Spd
km/h
Gust
km/h
Spd
kts
Gust
kts
28/11:30pm 23.1 24.0 16.2 65 4.3 SE 6 9 3 5 1017.9 1014.1 0.0
28/11:00pm 23.4 24.1 16.0 63 4.6 SE 7 9 4 5 1018.0 1014.2 0.0
28/10:30pm 23.8 24.4 15.3 59 5.2 SSE 6 9 3 5 1018.2 1014.4 0.0
28/10:00pm 24.4 24.7 15.1 56 5.7 SE 7 9 4 5 1018.5 1014.7 0.0
28/09:30pm 24.9 24.9 15.2 54 6.0 SSE 9 13 5 7 1018.6 1014.8 0.0
28/09:00pm 25.3 24.6 15.3 54 6.2 SSE 13 15 7 8 1018.3 1014.5 0.0
28/08:30pm 25.6 24.6 14.7 51 6.7 SSE 13 17 7 9 1018.1 1014.3 0.0
28/08:00pm 25.4 25.1 14.5 51 6.6 SSE 9 13 5 7 1017.6 1013.7 0.0
28/07:30pm 25.9 25.6 14.4 49 7.0 SE 9 11 5 6 1017.1 1013.3 0.0
28/07:00pm 26.5 26.2 14.3 47 7.4 SSE 9 11 5 6 1017.0 1013.2 0.0
28/06:30pm 27.3 26.9 14.0 44 8.1 SE 9 13 5 7 1016.4 1012.6 0.0
28/06:00pm 28.3 27.7 13.4 40 9.0 SE 9 11 5 6 1016.1 1012.3 0.0
28/05:30pm 29.2 27.9 12.6 36 10.0 SE 11 15 6 8 1015.9 1012.0 0.0
28/05:00pm 29.9 28.7 12.8 35 10.3 SE 11 19 6 10 1015.8 1011.9 0.0
28/04:30pm 29.8 28.7 13.1 36 10.1 SE 11 17 6 9 1015.7 1011.8 0.0
28/04:00pm 29.8 28.6 12.7 35 10.3 SE 11 20 6 11 1015.9 1012.0 0.0
28/03:30pm 30.1 30.3 13.0 35 10.4 E 4 11 2 6 1015.9 1012.0 0.0
28/03:00pm 29.8 28.7 13.1 36 10.1 ESE 11 19 6 10 1016.0 1012.2 0.0
28/02:30pm 29.7 28.4 12.6 35 10.3 E 11 20 6 11 1016.3 1012.5 0.0
28/02:00pm 29.1 27.3 12.1 35 10.1 E 13 19 7 10 1016.5 1012.7 0.0
28/01:30pm 28.7 27.2 13.0 38 9.5 E 13 19 7 10 1016.8 1013.0 0.0
28/01:00pm 28.7 27.7 13.4 39 9.3 ESE 11 20 6 11 1017.4 1013.5 0.0
28/12:30pm 28.2 26.8 13.3 40 9.0 ESE 13 19 7 10 1017.7 1013.9 0.0
28/12:00pm 28.1 27.0 13.2 39 9.0 ESE 11 19 6 10 1018.3 1014.5 0.0
28/11:30am 26.9 25.3 12.9 42 8.4 ESE 13 22 7 12 1018.9 1015.1 0.0
28/11:00am 26.6 24.8 13.3 43 8.0 ESE 15 24 8 13 1019.1 1015.3 0.0
28/10:30am 26.1 23.8 12.9 44 7.9 ESE 17 26 9 14 1019.6 1015.8 0.0
28/10:00am 25.7 22.9 13.2 46 7.5 ESE 20 28 11 15 1019.7 1015.9 0.0
28/09:30am 24.7 22.8 14.2 52 6.4 ESE 17 26 9 14 1020.1 1016.3 0.0
28/09:00am 23.6 22.0 14.9 58 5.3 ESE 17 24 9 13 1020.0 1016.2 7.6
28/08:30am 22.9 22.2 15.5 63 4.5 SE 13 19 7 10 1020.2 1016.4 7.6
28/08:00am 21.9 21.4 15.0 65 4.2 ESE 11 15 6 8 1020.3 1016.5 7.6
28/07:30am 21.4 22.8 15.3 68 3.7 NNE 2 7 1 4 1019.7 1015.9 7.6
28/07:00am 20.1 20.6 15.5 75 2.8 NE 7 9 4 5 1019.1 1015.3 7.6
28/06:30am 19.4 20.0 15.3 77 2.5 SE 6 9 3 5 1018.8 1015.0 7.6
28/06:00am 19.5 20.1 15.2 76 2.6 SE 6 7 3 4 1018.6 1014.8 7.6
28/05:30am 19.7 21.5 15.6 77 2.5 CALM 0 6 0 3 1018.4 1014.6 7.6
28/05:00am 19.9 21.7 15.5 76 2.7 CALM 0 0 0 0 1018.6 1014.8 7.6
28/04:30am 19.7 20.2 15.6 77 2.5 WSW 7 9 4 5 1018.5 1014.7 7.6
28/04:00am 19.8 21.6 15.4 76 2.7 CALM 0 0 0 0 1018.1 1014.3 7.6
28/03:30am 19.7 21.5 15.6 77 2.5 CALM 0 0 0 0 1017.8 1014.0 7.6
28/03:00am 19.6 21.4 15.5 77 2.5 CALM 0 0 0 0 1017.9 1014.1 7.6
28/02:30am 19.6 21.5 15.7 78 2.4 CALM 0 0 0 0 1017.9 1014.1 7.6
28/02:00am 19.4 21.1 15.3 77 2.5 CALM 0 0 0 0 1018.1 1014.3 7.6
28/01:30am 19.5 21.2 15.2 76 2.6 CALM 0 0 0 0 1018.2 1014.4 7.6
28/01:00am 19.7 21.3 14.9 74 2.9 CALM 0 0 0 0 1018.4 1014.6 7.6
28/12:30am 19.9 21.6 15.1 74 2.9 CALM 0 4 0 2 1018.6 1014.8 7.6
28/12:00am 20.2 19.8 15.2 73 3.0 SSW 11 15 6 8 1018.4 1014.6 7.6
 
Date/Time
WST
Temp
°C
App
Temp
°C
Dew
Point
Rel
Hum
%
Delta-T
°C
Wind Press
QNH
hPa
Press
MSL
hPa
Rain
since 9 am
mm
Dir
 
Spd
km/h
Gust
km/h
Spd
kts
Gust
kts
27/11:30pm 20.2 19.8 15.2 73 3.0 WSW 11 17 6 9 1019.1 1015.3 7.4
27/11:00pm 20.3 20.7 15.3 73 3.0 WSW 7 11 4 6 1018.8 1015.0 7.2
27/10:30pm 20.2 20.6 15.2 73 3.0 W 7 11 4 6 1019.2 1015.4 7.2
27/10:00pm 20.1 19.4 15.3 74 2.9 WSW 13 15 7 8 1019.3 1015.5 7.2
27/09:30pm 20.1 19.7 15.1 73 3.0 WSW 11 15 6 8 1019.5 1015.7 7.2
27/09:00pm 20.3 19.9 15.1 72 3.1 WSW 11 15 6 8 1019.6 1015.8 7.2
27/08:30pm 20.2 19.4 15.2 73 3.0 WSW 13 15 7 8 1019.1 1015.3 7.2
27/08:00pm 20.2 20.8 15.2 73 3.0 SSW 6 9 3 5 1019.1 1015.3 7.2
27/07:30pm 20.2 20.1 15.0 72 3.1 SW 9 13 5 7 1018.9 1015.1 7.2
27/07:00pm 20.5 18.8 14.8 70 3.4 SE 17 22 9 12 1018.1 1014.3 7.2
27/06:30pm 20.6 18.7 15.2 71 3.3 SE 19 26 10 14 1018.3 1014.5 7.2
27/06:00pm 20.6 18.7 15.2 71 3.3 SSE 19 32 10 17 1018.2 1014.4 7.0
27/05:30pm 20.3 19.2 15.3 73 3.0 S 15 20 8 11 1018.8 1015.0 6.2
27/05:00pm 20.4 17.5 15.0 71 3.2 S 24 30 13 16 1018.4 1014.6 3.8
27/04:30pm 21.7 20.1 13.9 61 4.6 S 15 22 8 12 1019.1 1015.3 2.6
27/04:00pm 21.5 19.4 13.7 61 4.6 S 17 24 9 13 1018.6 1014.8 2.6
27/03:30pm 20.8 18.8 14.0 65 4.0 SSW 17 24 9 13 1019.1 1015.3 2.6
27/03:00pm 21.1 17.6 13.3 61 4.6 SSE 24 33 13 18 1019.1 1015.3 2.4
27/02:30pm 19.6 16.2 13.8 69 3.4 SSE 24 35 13 19 1019.1 1015.3 2.0
27/02:00pm 23.0 19.0 11.7 49 6.5 S 24 39 13 21 1019.7 1015.9 0.0
27/01:30pm 22.9 18.7 12.5 52 6.1 SE 26 39 14 21 1018.4 1014.6 0.0
27/01:00pm 24.6 20.3 12.2 46 7.2 S 26 33 14 18 1020.0 1016.2 0.0
27/12:30pm 26.7 22.1 8.2 31 10.2 SSE 22 32 12 17 1020.5 1016.7 0.0

Other Formats:

Comma delimited format used in spreadsheet applications
http://www.bom.gov.au/fwo/IDW60801/IDW60801.94317.axf

JavaScript Object Notation format (JSON) in row-major order
http://www.bom.gov.au/fwo/IDW60801/IDW60801.94317.json